createdAt,value
2023-06-04T00:01:16.383Z,101978.34
2023-06-04T00:03:47.253Z,101988.28
2023-06-04T00:06:15.795Z,101987.06
2023-06-04T00:08:44.117Z,101983.88
2023-06-04T00:11:12.424Z,101979.56
2023-06-04T00:13:40.756Z,101978.78
2023-06-04T00:16:09.273Z,101979.91
2023-06-04T00:18:37.586Z,101975.72
2023-06-04T00:21:07.941Z,101978.91
2023-06-04T00:23:36.444Z,101980.94
2023-06-04T00:26:06.053Z,101981.41
2023-06-04T00:28:34.294Z,101974.03
2023-06-04T00:31:02.785Z,101972.91
2023-06-04T00:33:31.115Z,101966.81
2023-06-04T00:35:59.510Z,101976.53
2023-06-04T00:38:29.259Z,101977.00
2023-06-04T00:40:57.752Z,101983.69
2023-06-04T00:43:32.528Z,101979.81
2023-06-04T00:46:03.601Z,101978.69
2023-06-04T00:48:32.658Z,101978.00
2023-06-04T00:51:01.610Z,101979.25
2023-06-04T00:53:31.629Z,101973.47
2023-06-04T00:55:59.898Z,101979.38
2023-06-04T00:58:28.333Z,101985.28
2023-06-04T01:01:00.402Z,101984.91
2023-06-04T01:03:32.673Z,101976.75
2023-06-04T01:06:12.807Z,101983.00
2023-06-04T01:08:44.557Z,101980.72
2023-06-04T01:11:12.915Z,101988.56
2023-06-04T01:13:41.216Z,101977.69
2023-06-04T01:16:11.155Z,101982.00
2023-06-04T01:18:41.789Z,101991.72
2023-06-04T01:21:13.761Z,101978.13
2023-06-04T01:23:59.452Z,101985.13
2023-06-04T01:26:30.090Z,101984.81
2023-06-04T01:29:00.022Z,101988.31
2023-06-04T01:31:29.662Z,101980.16
2023-06-04T01:33:59.017Z,101986.41
2023-06-04T01:36:27.958Z,101985.59
2023-06-04T01:38:57.599Z,101987.50
2023-06-04T01:41:26.318Z,101979.38
2023-06-04T01:43:54.591Z,101985.94
2023-06-04T01:46:23.364Z,101983.22
2023-06-04T01:48:51.719Z,101989.44
2023-06-04T01:51:20.030Z,101985.13
2023-06-04T01:53:48.327Z,101979.38
2023-06-04T01:56:17.961Z,101978.25
2023-06-04T01:58:46.893Z,101985.28
2023-06-04T02:01:18.087Z,101983.69
2023-06-04T02:03:46.663Z,101985.59
2023-06-04T02:06:14.981Z,101988.66
2023-06-04T02:08:43.629Z,101985.47
2023-06-04T02:11:12.084Z,101994.41
2023-06-04T02:13:41.740Z,101990.91
2023-06-04T02:16:10.111Z,101996.34
2023-06-04T02:18:38.392Z,101994.78
2023-06-04T02:21:07.388Z,101993.22
2023-06-04T02:23:36.210Z,101990.00
2023-06-04T02:26:04.665Z,101981.41
2023-06-04T02:28:33.008Z,101986.84
2023-06-04T02:31:02.642Z,101987.84
2023-06-04T02:33:31.016Z,101993.63
2023-06-04T02:35:59.436Z,101985.84
2023-06-04T02:38:27.709Z,101996.34
2023-06-04T02:40:55.980Z,101998.63
2023-06-04T02:43:24.341Z,101998.63
2023-06-04T02:45:52.710Z,102012.22
2023-06-04T02:48:22.405Z,102010.16
2023-06-04T02:50:50.656Z,102011.28
2023-06-04T02:53:19.202Z,102003.84
2023-06-04T02:55:47.410Z,102009.28
2023-06-04T02:58:17.177Z,102006.06
2023-06-04T03:00:45.497Z,102009.91
2023-06-04T03:03:13.968Z,102008.69
2023-06-04T03:05:44.076Z,102021.47
2023-06-04T03:08:12.502Z,102004.25
2023-06-04T03:10:40.976Z,102004.91
2023-06-04T03:13:09.289Z,102001.75
2023-06-04T03:15:40.328Z,102005.94
2023-06-04T03:18:09.244Z,102005.81
2023-06-04T03:20:39.461Z,102003.44
2023-06-04T03:23:09.374Z,102005.69
2023-06-04T03:25:37.855Z,102004.44
2023-06-04T03:28:06.773Z,102005.13
2023-06-04T03:30:35.065Z,102012.78
2023-06-04T03:33:03.947Z,102001.03
2023-06-04T03:35:32.278Z,102009.81
2023-06-04T03:38:00.525Z,102011.31
2023-06-04T03:40:30.207Z,102007.81
2023-06-04T03:42:58.480Z,102010.53
2023-06-04T03:45:26.952Z,102011.16
2023-06-04T03:47:55.264Z,102013.44
2023-06-04T03:50:23.784Z,102009.47
2023-06-04T03:52:52.307Z,102004.69
2023-06-04T03:55:20.693Z,102000.75
2023-06-04T03:57:50.717Z,102011.91
2023-06-04T04:00:19.426Z,102006.47
2023-06-04T04:02:47.851Z,102006.03
2023-06-04T04:05:17.345Z,102001.88
2023-06-04T04:07:45.895Z,101996.91
2023-06-04T04:10:14.137Z,101998.47
2023-06-04T04:12:42.426Z,101993.50
2023-06-04T04:15:12.754Z,101998.28
2023-06-04T04:17:41.129Z,102004.13
2023-06-04T04:20:10.065Z,102002.38
2023-06-04T04:22:43.241Z,102004.38
2023-06-04T04:25:12.068Z,102008.03
2023-06-04T04:27:41.979Z,102020.13
2023-06-04T04:30:15.392Z,102013.38
2023-06-04T04:32:50.072Z,102015.88
2023-06-04T04:35:19.492Z,102013.41
2023-06-04T04:37:48.236Z,102014.13
2023-06-04T04:40:16.582Z,102014.34
2023-06-04T04:42:45.140Z,102015.81
2023-06-04T04:45:14.869Z,102016.16
2023-06-04T04:47:43.219Z,102021.16
2023-06-04T04:50:12.591Z,102021.06
2023-06-04T04:52:40.917Z,102018.19
2023-06-04T04:55:10.740Z,102015.69
2023-06-04T04:57:39.063Z,102021.03
2023-06-04T05:00:10.277Z,102012.72
2023-06-04T05:02:40.109Z,102009.91
2023-06-04T05:05:09.432Z,102013.28
2023-06-04T05:07:37.672Z,102018.22
2023-06-04T05:10:06.932Z,102022.38
2023-06-04T05:12:35.242Z,102014.06
2023-06-04T05:15:04.261Z,102024.34
2023-06-04T05:17:32.695Z,102028.50
2023-06-04T05:20:04.664Z,102031.06
2023-06-04T05:22:34.124Z,102035.22
2023-06-04T05:25:02.429Z,102037.72
2023-06-04T05:27:32.547Z,102043.31
2023-06-04T05:30:02.385Z,102043.50
2023-06-04T05:32:31.587Z,102034.38
2023-06-04T05:35:05.626Z,102043.19
2023-06-04T05:37:35.389Z,102048.03
2023-06-04T05:40:06.622Z,102041.16
2023-06-04T05:42:35.046Z,102031.22
2023-06-04T05:45:03.685Z,102033.34
2023-06-04T05:47:32.534Z,102042.44
2023-06-04T05:50:02.641Z,102029.00
2023-06-04T05:52:31.054Z,102032.69
2023-06-04T05:54:59.304Z,102041.03
2023-06-04T05:57:27.676Z,102034.22
2023-06-04T05:59:55.972Z,102038.66
2023-06-04T06:02:24.293Z,102034.19
2023-06-04T06:04:52.598Z,102043.72
2023-06-04T06:07:22.429Z,102036.16
2023-06-04T06:09:50.720Z,102041.00
2023-06-04T06:12:19.028Z,102038.88
2023-06-04T06:14:47.252Z,102030.50
2023-06-04T06:17:15.803Z,102045.50
2023-06-04T06:19:44.246Z,102050.72
2023-06-04T06:22:12.735Z,102052.91
2023-06-04T06:24:42.631Z,102051.13
2023-06-04T06:27:13.985Z,102047.00
2023-06-04T06:29:42.964Z,102047.97
2023-06-04T06:32:11.921Z,102053.25
2023-06-04T06:34:40.242Z,102057.75
2023-06-04T06:37:09.612Z,102054.78
2023-06-04T06:39:37.906Z,102056.88
2023-06-04T06:42:07.706Z,102062.16
2023-06-04T06:44:36.237Z,102063.91
2023-06-04T06:47:04.635Z,102063.28
2023-06-04T06:49:33.176Z,102061.88
2023-06-04T06:52:01.485Z,102065.59
2023-06-04T06:54:29.741Z,102061.38
2023-06-04T06:56:59.019Z,102067.00
2023-06-04T06:59:29.317Z,102074.53
2023-06-04T07:01:57.659Z,102071.91
2023-06-04T07:04:26.467Z,102075.16
2023-06-04T07:06:54.718Z,102076.84
2023-06-04T07:09:22.924Z,102069.84
2023-06-04T07:11:51.205Z,102082.50
2023-06-04T07:14:19.531Z,102076.72
2023-06-04T07:16:49.216Z,102081.13
2023-06-04T07:19:17.483Z,102081.56
2023-06-04T07:21:45.873Z,102074.97
2023-06-04T07:24:14.170Z,102076.59
2023-06-04T07:26:42.630Z,102073.94
2023-06-04T07:29:11.019Z,102079.50
2023-06-04T07:31:39.287Z,102077.19
2023-06-04T07:34:08.980Z,102077.19
2023-06-04T07:36:37.730Z,102074.88
2023-06-04T07:39:06.637Z,102074.53
2023-06-04T07:41:35.106Z,102080.84
2023-06-04T07:44:03.386Z,102078.91
2023-06-04T07:46:32.989Z,102074.19
2023-06-04T07:49:01.367Z,102068.31
2023-06-04T07:51:31.007Z,102075.03
2023-06-04T07:53:59.447Z,102076.16
2023-06-04T07:56:27.859Z,102070.28
2023-06-04T07:58:56.393Z,102077.72
2023-06-04T08:01:25.008Z,102074.59
2023-06-04T08:03:53.469Z,102079.25
2023-06-04T08:06:21.928Z,102072.19
2023-06-04T08:08:51.639Z,102082.78
2023-06-04T08:11:20.204Z,102082.34
2023-06-04T08:13:48.453Z,102085.06
2023-06-04T08:16:16.857Z,102081.13
2023-06-04T08:18:45.181Z,102079.47
2023-06-04T08:21:14.000Z,102073.44
2023-06-04T08:23:42.456Z,102077.72
2023-06-04T08:26:12.333Z,102081.22
2023-06-04T08:28:41.019Z,102085.09
2023-06-04T08:31:09.707Z,102092.91
2023-06-04T08:33:38.042Z,102073.94
2023-06-04T08:36:07.130Z,102090.81
2023-06-04T08:38:35.572Z,102079.28
2023-06-04T08:41:15.690Z,102076.81
2023-06-04T08:43:45.959Z,102080.25
2023-06-04T08:46:15.932Z,102072.25
2023-06-04T08:48:44.415Z,102080.38
2023-06-04T08:51:15.120Z,102082.59
2023-06-04T08:53:48.762Z,102077.34
2023-06-04T08:56:18.962Z,102085.16
2023-06-04T08:58:49.888Z,102083.06
2023-06-04T09:01:20.162Z,102084.97
2023-06-04T09:03:49.573Z,102093.53
2023-06-04T09:06:18.057Z,102083.53
2023-06-04T09:08:57.767Z,102085.78
2023-06-04T09:11:36.274Z,102084.00
2023-06-04T09:14:09.806Z,102091.78
2023-06-04T09:16:46.474Z,102084.91
2023-06-04T09:19:15.036Z,102070.22
2023-06-04T09:21:54.060Z,102083.59
2023-06-04T09:24:24.197Z,102077.16
2023-06-04T09:26:54.202Z,102072.25
2023-06-04T09:29:22.706Z,102082.00
2023-06-04T09:32:00.851Z,102089.34
2023-06-04T09:34:32.729Z,102090.41
2023-06-04T09:37:01.373Z,102085.97
2023-06-04T09:39:29.707Z,102079.06
2023-06-04T09:42:04.037Z,102073.75
2023-06-04T09:44:32.780Z,102088.28
2023-06-04T09:47:01.783Z,102078.19
2023-06-04T09:49:30.354Z,102079.97
2023-06-04T09:51:58.687Z,102085.25
2023-06-04T09:54:38.728Z,102081.13
2023-06-04T09:57:17.552Z,102075.91
2023-06-04T09:59:47.700Z,102084.38
2023-06-04T10:02:20.192Z,102077.47
2023-06-04T10:04:58.448Z,102072.13
2023-06-04T10:07:27.723Z,102069.72
2023-06-04T10:09:57.280Z,102079.94
2023-06-04T10:12:33.560Z,102087.38
2023-06-04T10:15:08.686Z,102083.75
2023-06-04T10:17:38.299Z,102080.84
2023-06-04T10:20:09.788Z,102073.09
2023-06-04T10:22:38.300Z,102075.38
2023-06-04T10:25:08.094Z,102069.72
2023-06-04T10:27:37.857Z,102077.63
2023-06-04T10:30:08.131Z,102075.88
2023-06-04T10:32:37.196Z,102076.91
2023-06-04T10:35:09.052Z,102060.34
2023-06-04T10:37:37.593Z,102077.94
2023-06-04T10:40:07.767Z,102066.22
2023-06-04T10:42:45.067Z,102064.81
2023-06-04T10:45:13.860Z,102065.41
2023-06-04T10:47:42.888Z,102070.50
2023-06-04T10:50:14.082Z,102063.41
2023-06-04T10:52:54.688Z,102049.19
2023-06-04T10:55:23.325Z,102051.97
2023-06-04T10:57:57.153Z,102058.19
2023-06-04T11:00:37.695Z,102057.75
2023-06-04T11:03:09.701Z,102060.69
2023-06-04T11:05:39.060Z,102054.47
2023-06-04T11:08:08.363Z,102056.38
2023-06-04T11:10:38.939Z,102062.72
2023-06-04T11:13:08.814Z,102053.84
2023-06-04T11:15:42.789Z,102050.63
2023-06-04T11:18:17.519Z,102061.72
2023-06-04T11:20:46.990Z,102048.53
2023-06-04T11:23:16.904Z,102032.97
2023-06-04T11:25:46.766Z,102050.97
2023-06-04T11:28:19.965Z,102043.78
2023-06-04T11:30:59.720Z,102041.00
2023-06-04T11:33:28.400Z,102023.88
2023-06-04T11:35:56.761Z,102026.31
2023-06-04T11:38:25.081Z,102021.19
2023-06-04T11:41:01.409Z,102041.16
2023-06-04T11:43:31.559Z,102033.66
2023-06-04T11:46:00.316Z,102033.41
2023-06-04T11:48:29.072Z,102019.78
2023-06-04T11:50:57.549Z,102015.66
2023-06-04T11:53:27.200Z,102014.00
2023-06-04T11:55:55.839Z,102028.13
2023-06-04T11:58:24.221Z,102020.34
2023-06-04T12:00:54.008Z,102019.13
2023-06-04T12:03:35.705Z,102027.53
2023-06-04T12:06:13.843Z,102022.59
2023-06-04T12:08:54.245Z,102014.25
2023-06-04T12:11:30.264Z,102014.56
2023-06-04T12:14:00.769Z,102018.13
2023-06-04T12:16:30.733Z,102010.88
2023-06-04T12:19:11.292Z,102021.34
2023-06-04T12:21:40.662Z,102014.88
2023-06-04T12:24:11.179Z,102010.00
2023-06-04T12:26:41.829Z,102011.25
2023-06-04T12:29:12.413Z,102007.00
2023-06-04T12:31:44.315Z,102012.88
2023-06-04T12:34:13.674Z,102002.13
2023-06-04T12:36:42.032Z,101998.78
2023-06-04T12:39:10.313Z,102002.66
2023-06-04T12:41:39.061Z,101999.22
2023-06-04T12:44:07.492Z,102004.09
2023-06-04T12:46:35.957Z,102003.00
2023-06-04T12:49:06.632Z,101997.47
2023-06-04T12:51:34.853Z,101998.97
2023-06-04T12:54:03.100Z,101991.03
2023-06-04T12:56:31.475Z,101990.56
2023-06-04T12:59:00.010Z,101990.63
2023-06-04T13:01:28.755Z,101994.19
2023-06-04T13:03:57.745Z,101999.19
2023-06-04T13:06:27.657Z,101997.44
2023-06-04T13:08:56.076Z,102000.88
2023-06-04T13:11:24.406Z,102004.66
2023-06-04T13:13:52.739Z,102001.13
2023-06-04T13:16:21.158Z,101983.00
2023-06-04T13:18:49.607Z,101995.34
2023-06-04T13:21:18.012Z,102002.13
2023-06-04T13:23:50.304Z,102000.88
2023-06-04T13:26:19.941Z,102000.44
2023-06-04T13:28:49.133Z,101998.34
2023-06-04T13:31:17.711Z,101996.22
2023-06-04T13:33:46.425Z,101988.88
2023-06-04T13:36:14.692Z,101991.34
2023-06-04T13:38:44.434Z,101997.78
2023-06-04T13:41:15.616Z,101993.81
2023-06-04T13:43:43.931Z,101992.44
2023-06-04T13:46:12.318Z,101999.56
2023-06-04T13:48:40.624Z,101985.88
2023-06-04T13:51:09.166Z,101982.22
2023-06-04T13:53:37.736Z,101975.66
2023-06-04T13:56:06.332Z,101979.53
2023-06-04T13:58:36.056Z,101977.53
2023-06-04T14:01:04.414Z,101969.53
2023-06-04T14:03:32.811Z,101979.53
2023-06-04T14:06:02.427Z,101968.41
2023-06-04T14:08:30.727Z,101960.66
2023-06-04T14:10:59.025Z,101973.94
2023-06-04T14:13:27.295Z,101980.91
2023-06-04T14:15:57.526Z,101962.75
2023-06-04T14:18:25.830Z,101964.28
2023-06-04T14:20:54.473Z,101956.72
2023-06-04T14:23:22.789Z,101949.19
2023-06-04T14:25:51.180Z,101962.75
2023-06-04T14:28:21.837Z,101953.72
2023-06-04T14:30:50.109Z,101953.41
2023-06-04T14:33:19.924Z,101960.69
2023-06-04T14:35:48.547Z,101971.53
2023-06-04T14:38:17.296Z,101960.91
2023-06-04T14:40:46.513Z,101953.44
2023-06-04T14:43:15.195Z,101944.53
2023-06-04T14:45:43.536Z,101955.38
2023-06-04T14:48:16.210Z,101934.16
2023-06-04T14:50:47.908Z,101954.75
2023-06-04T14:53:16.210Z,101945.06
2023-06-04T14:55:44.684Z,101942.66
2023-06-04T14:58:13.495Z,101939.50
2023-06-04T15:00:41.980Z,101929.97
2023-06-04T15:03:10.722Z,101939.44
2023-06-04T15:05:39.125Z,101935.13
2023-06-04T15:08:09.630Z,101941.44
2023-06-04T15:10:38.020Z,101933.56
2023-06-04T15:13:06.459Z,101937.97
2023-06-04T15:15:34.767Z,101926.88
2023-06-04T15:18:03.309Z,101924.88
2023-06-04T15:20:31.679Z,101923.41
2023-06-04T15:23:00.195Z,101929.50
2023-06-04T15:25:30.778Z,101926.38
2023-06-04T15:27:59.654Z,101925.28
2023-06-04T15:30:27.932Z,101918.50
2023-06-04T15:32:56.227Z,101918.97
2023-06-04T15:35:24.800Z,101918.25
2023-06-04T15:37:53.067Z,101913.63
2023-06-04T15:40:21.986Z,101918.13
2023-06-04T15:42:51.952Z,101919.44
2023-06-04T15:45:22.381Z,101913.97
2023-06-04T15:47:50.740Z,101910.50
2023-06-04T15:50:19.146Z,101908.97
2023-06-04T15:52:47.944Z,101914.16
2023-06-04T15:55:17.571Z,101907.97
2023-06-04T15:57:45.982Z,101910.13
2023-06-04T16:00:17.748Z,101906.06
2023-06-04T16:02:46.191Z,101909.34
2023-06-04T16:05:14.584Z,101904.59
2023-06-04T16:07:42.880Z,101892.75
2023-06-04T16:10:11.940Z,101891.25
2023-06-04T16:12:40.686Z,101886.25
2023-06-04T16:15:10.377Z,101896.19
2023-06-04T16:17:43.549Z,101889.19
2023-06-04T16:22:41.425Z,101890.13
2023-06-04T16:25:10.886Z,101904.47
2023-06-04T16:27:39.290Z,101900.69
2023-06-04T16:30:09.588Z,101884.22
2023-06-04T16:32:39.567Z,101886.47
2023-06-04T16:35:10.451Z,101883.00
2023-06-04T16:37:39.070Z,101878.31
2023-06-04T16:40:08.913Z,101887.81
2023-06-04T16:42:38.103Z,101884.78
2023-06-04T16:45:07.610Z,101884.78
2023-06-04T16:47:37.658Z,101884.78
2023-06-04T16:50:09.030Z,101886.44
2023-06-04T16:52:38.024Z,101874.66
2023-06-04T16:55:09.547Z,101886.59
2023-06-04T16:57:38.957Z,101879.91
2023-06-04T17:00:24.956Z,101880.44
2023-06-04T17:02:56.206Z,101881.72
2023-06-04T17:05:29.027Z,101873.56
2023-06-04T17:07:59.528Z,101872.84
2023-06-04T17:10:33.658Z,101869.03
2023-06-04T17:13:02.730Z,101873.88
2023-06-04T17:15:31.309Z,101869.59
2023-06-04T17:18:02.423Z,101875.28
2023-06-04T17:20:33.125Z,101873.44
2023-06-04T17:23:02.180Z,101882.25
2023-06-04T17:25:33.260Z,101871.31
2023-06-04T17:28:01.996Z,101868.25
2023-06-04T17:30:30.480Z,101865.53
2023-06-04T17:32:59.021Z,101869.50
2023-06-04T17:35:27.407Z,101871.94
2023-06-04T17:37:57.339Z,101876.72
2023-06-04T17:40:27.598Z,101873.25
2023-06-04T17:42:56.220Z,101868.19
2023-06-04T17:45:24.546Z,101871.81
2023-06-04T17:47:52.928Z,101872.66
2023-06-04T17:50:21.330Z,101878.31
2023-06-04T17:52:49.648Z,101887.06
2023-06-04T17:55:19.772Z,101884.78
2023-06-04T17:57:48.098Z,101884.06
2023-06-04T18:00:17.978Z,101884.47
2023-06-04T18:02:46.303Z,101887.69
2023-06-04T18:05:14.770Z,101887.31
2023-06-04T18:07:43.195Z,101885.03
2023-06-04T18:10:12.286Z,101889.81
2023-06-04T18:12:42.196Z,101891.88
2023-06-04T18:15:11.969Z,101888.38
2023-06-04T18:17:40.362Z,101884.88
2023-06-04T18:20:10.542Z,101882.56
2023-06-04T18:22:39.054Z,101884.63
2023-06-04T18:25:09.415Z,101882.69
2023-06-04T18:27:38.110Z,101885.50
2023-06-04T18:30:09.928Z,101887.09
2023-06-04T18:32:38.492Z,101882.44
2023-06-04T18:35:07.580Z,101884.84
2023-06-04T18:37:35.982Z,101884.84
2023-06-04T18:40:04.651Z,101887.59
2023-06-04T18:42:32.915Z,101888.00
2023-06-04T18:45:04.522Z,101879.78
2023-06-04T18:47:34.310Z,101880.25
2023-06-04T18:50:02.695Z,101888.94
2023-06-04T18:52:34.038Z,101883.09
2023-06-04T18:55:02.899Z,101889.06
2023-06-04T18:57:31.835Z,101888.31
2023-06-04T19:00:00.229Z,101892.72
2023-06-04T19:02:28.559Z,101891.97
2023-06-04T19:04:58.253Z,101893.59
2023-06-04T19:07:26.559Z,101893.66
2023-06-04T19:09:54.867Z,101900.38
2023-06-04T19:12:23.211Z,101897.69
2023-06-04T19:14:51.566Z,101898.16
2023-06-04T19:17:20.265Z,101898.59
2023-06-04T19:19:49.445Z,101904.53
2023-06-04T19:22:19.148Z,101907.72
2023-06-04T19:24:47.469Z,101909.31
2023-06-04T19:27:17.668Z,101908.94
2023-06-04T19:29:46.838Z,101908.16
2023-06-04T19:32:15.451Z,101916.88
2023-06-04T19:34:43.867Z,101919.69
2023-06-04T19:37:12.365Z,101913.84
2023-06-04T19:39:42.112Z,101929.22
2023-06-04T19:42:10.502Z,101926.50
2023-06-04T19:44:39.050Z,101922.25
2023-06-04T19:47:07.963Z,101919.91
2023-06-04T19:49:36.385Z,101920.75
2023-06-04T19:52:06.186Z,101925.91
2023-06-04T19:54:34.490Z,101929.50
2023-06-04T19:57:04.327Z,101927.22
2023-06-04T19:59:32.724Z,101932.38
2023-06-04T20:02:01.085Z,101941.47
2023-06-04T20:04:29.464Z,101936.00
2023-06-04T20:06:58.585Z,101950.19
2023-06-04T20:09:27.269Z,101941.59
2023-06-04T20:11:55.674Z,101943.97
2023-06-04T20:14:25.404Z,101948.31
2023-06-04T20:16:53.956Z,101946.38
2023-06-04T20:19:23.299Z,101948.78
2023-06-04T20:21:51.768Z,101950.38
2023-06-04T20:24:21.199Z,101951.56
2023-06-04T20:26:49.590Z,101958.28
2023-06-04T20:29:17.912Z,101961.44
2023-06-04T20:31:47.851Z,101963.03
2023-06-04T20:34:16.326Z,101964.63
2023-06-04T20:36:44.623Z,101969.75
2023-06-04T20:39:12.889Z,101963.09
2023-06-04T20:41:41.703Z,101976.44
2023-06-04T20:44:09.999Z,101981.16
2023-06-04T20:46:38.424Z,101986.25
2023-06-04T20:49:08.239Z,101982.31
2023-06-04T20:51:36.574Z,101983.50
2023-06-04T20:54:06.430Z,101990.16
2023-06-04T20:56:34.847Z,101994.84
2023-06-04T20:59:03.165Z,101997.22
2023-06-04T21:01:31.577Z,101999.97
2023-06-04T21:04:01.570Z,101992.88
2023-06-04T21:06:31.477Z,102000.34
2023-06-04T21:08:59.799Z,101996.81
2023-06-04T21:11:28.817Z,102011.31
2023-06-04T21:13:58.012Z,102010.91
2023-06-04T21:16:26.365Z,102014.06
2023-06-04T21:18:55.071Z,102008.13
2023-06-04T21:21:23.377Z,102013.63
2023-06-04T21:23:53.182Z,102020.69
2023-06-04T21:26:21.880Z,102021.06
2023-06-04T21:28:50.432Z,102020.28
2023-06-04T21:31:18.936Z,102023.00
2023-06-04T21:33:47.388Z,102024.94
2023-06-04T21:36:16.544Z,102021.03
2023-06-04T21:38:45.356Z,102017.50
2023-06-04T21:41:14.988Z,102020.63
2023-06-04T21:43:43.293Z,102021.78
2023-06-04T21:46:12.045Z,102025.31
2023-06-04T21:48:40.355Z,102022.50
2023-06-04T21:51:08.883Z,102026.03
2023-06-04T21:53:37.377Z,102025.63
2023-06-04T21:56:06.050Z,102027.97
2023-06-04T21:58:35.925Z,102026.75
2023-06-04T22:01:04.232Z,102036.19
2023-06-04T22:03:32.612Z,102036.94
2023-06-04T22:06:01.038Z,102036.13
2023-06-04T22:08:29.281Z,102049.81
2023-06-04T22:10:57.702Z,102043.91
2023-06-04T22:13:26.032Z,102037.25
2023-06-04T22:15:55.695Z,102044.66
2023-06-04T22:18:23.997Z,102051.31
2023-06-04T22:20:52.297Z,102044.59
2023-06-04T22:23:20.590Z,102050.06
2023-06-04T22:25:49.297Z,102055.91
2023-06-04T22:28:17.563Z,102054.31
2023-06-04T22:30:46.187Z,102056.66
2023-06-04T22:33:15.930Z,102050.38
2023-06-04T22:35:44.255Z,102058.53
2023-06-04T22:38:12.587Z,102054.19
2023-06-04T22:40:41.090Z,102053.75
2023-06-04T22:43:09.347Z,102062.75
2023-06-04T22:45:37.645Z,102058.00
2023-06-04T22:48:06.652Z,102060.28
2023-06-04T22:50:38.033Z,102057.09
2023-06-04T22:53:09.134Z,102056.69
2023-06-04T22:55:37.482Z,102050.03
2023-06-04T22:58:05.926Z,102064.06
2023-06-04T23:00:34.240Z,102057.75
2023-06-04T23:03:02.629Z,102060.75
2023-06-04T23:05:32.085Z,102058.78
2023-06-04T23:08:01.750Z,102065.78
2023-06-04T23:10:30.025Z,102059.13
2023-06-04T23:12:58.294Z,102057.53
2023-06-04T23:15:26.866Z,102059.06
2023-06-04T23:17:55.210Z,102062.88
2023-06-04T23:20:23.600Z,102063.59
2023-06-04T23:22:51.812Z,102071.34
2023-06-04T23:25:21.551Z,102063.03
2023-06-04T23:27:50.004Z,102075.16
2023-06-04T23:30:19.828Z,102079.06
2023-06-04T23:32:48.226Z,102078.97
2023-06-04T23:35:16.665Z,102072.66
2023-06-04T23:37:45.027Z,102078.47
2023-06-04T23:40:13.792Z,102076.06
2023-06-04T23:42:43.436Z,102076.00
2023-06-04T23:45:13.128Z,102072.47
2023-06-04T23:47:41.449Z,102076.66
2023-06-04T23:50:10.706Z,102073.88
2023-06-04T23:52:40.143Z,102074.63
2023-06-04T23:55:09.340Z,102077.28
2023-06-04T23:57:37.587Z,102078.06
